Time;durP1;ratioP1;P1;durP2;ratioP2;P2;SDS_P1;SDS_P2;PMS_P1;PMS_P2;Temp;Humidity;BMP_temperature;BMP_pressure;BME280_temperature;BME280_humidity;BME280_pressure;Samples;Min_cycle;Max_cycle;Signal;HPM_P1;HPM_P2
2022/03/07 00:02:09;;;;;;;5.53;3.80;;;3.00;77.20;;;;;;5022668;28;20068;-64
2022/03/07 00:04:35;;;;;;;4.43;3.05;;;3.00;77.10;;;;;;5024419;28;20022;-63
2022/03/07 00:07:01;;;;;;;6.88;4.00;;;3.00;77.00;;;;;;5023839;28;20382;-64
2022/03/07 00:09:27;;;;;;;5.38;3.80;;;3.00;77.10;;;;;;5023708;28;20128;-63
2022/03/07 00:11:53;;;;;;;5.30;4.15;;;3.00;77.10;;;;;;5025752;28;20132;-64
2022/03/07 00:14:20;;;;;;;6.18;3.42;;;3.00;76.60;;;;;;5026598;28;20520;-64
2022/03/07 00:16:46;;;;;;;7.10;3.25;;;3.00;76.90;;;;;;5023297;28;20070;-63
2022/03/07 00:19:13;;;;;;;4.50;3.80;;;3.00;77.40;;;;;;5026860;28;20095;-64
2022/03/07 00:21:39;;;;;;;4.32;3.22;;;3.00;77.30;;;;;;5026166;28;20385;-64
2022/03/07 00:24:07;;;;;;;6.10;4.10;;;3.00;77.10;;;;;;5026799;28;20132;-64
2022/03/07 00:26:33;;;;;;;7.40;3.75;;;3.00;77.80;;;;;;5026006;28;20600;-64
2022/03/07 00:29:01;;;;;;;4.72;3.40;;;3.00;77.80;;;;;;5025968;28;20037;-64
2022/03/07 00:31:26;;;;;;;3.95;3.53;;;2.90;77.60;;;;;;5026905;28;20092;-63
2022/03/07 00:33:53;;;;;;;4.47;3.85;;;2.90;77.90;;;;;;5023053;28;20034;-64
2022/03/07 00:36:19;;;;;;;7.15;3.97;;;2.80;78.40;;;;;;5024399;28;20033;-63
2022/03/07 00:38:46;;;;;;;4.78;3.30;;;2.80;78.80;;;;;;5023015;28;20041;-63
2022/03/07 00:41:13;;;;;;;4.97;3.80;;;2.90;78.10;;;;;;5025036;28;20049;-64
2022/03/07 00:43:39;;;;;;;4.43;3.20;;;2.90;78.00;;;;;;5023981;28;20552;-63
2022/03/07 00:46:06;;;;;;;4.88;3.10;;;2.90;78.30;;;;;;5025440;28;20048;-64
2022/03/07 00:48:31;;;;;;;4.35;3.45;;;2.90;78.40;;;;;;5024580;28;20044;-63
2022/03/07 00:50:58;;;;;;;6.97;3.88;;;2.90;78.00;;;;;;5031703;28;20041;-64
2022/03/07 00:53:25;;;;;;;6.47;3.47;;;2.90;78.40;;;;;;5024615;28;20043;-63
2022/03/07 00:55:52;;;;;;;6.78;4.15;;;2.80;78.50;;;;;;5024246;28;20040;-64
2022/03/07 00:58:18;;;;;;;5.63;4.07;;;2.80;78.60;;;;;;5023072;28;20458;-64
2022/03/07 01:00:45;;;;;;;6.47;3.53;;;2.70;78.40;;;;;;5021561;28;20509;-63
2022/03/07 01:03:13;;;;;;;5.75;3.75;;;2.70;78.00;;;;;;5023590;28;20057;-64
2022/03/07 01:05:40;;;;;;;4.13;3.30;;;2.60;78.80;;;;;;5024149;28;20946;-64
2022/03/07 01:08:08;;;;;;;6.05;3.72;;;2.60;78.40;;;;;;5031749;28;20029;-64
2022/03/07 01:10:34;;;;;;;4.35;3.63;;;2.50;78.90;;;;;;5024951;28;20379;-64
2022/03/07 01:13:00;;;;;;;4.25;3.30;;;2.40;79.00;;;;;;5024571;28;20041;-63
2022/03/07 01:15:26;;;;;;;6.05;4.00;;;2.30;79.30;;;;;;5022679;28;20052;-64
2022/03/07 01:17:54;;;;;;;5.78;3.53;;;2.10;79.40;;;;;;5023527;28;20446;-64
2022/03/07 01:20:20;;;;;;;5.72;3.95;;;2.00;79.70;;;;;;5020792;28;20474;-63
2022/03/07 01:22:47;;;;;;;9.43;4.40;;;1.80;80.20;;;;;;5024961;28;20049;-63
2022/03/07 01:25:13;;;;;;;8.50;4.32;;;1.70;80.70;;;;;;5022618;28;20031;-65
2022/03/07 01:27:39;;;;;;;5.35;4.35;;;1.60;81.00;;;;;;5019600;28;20036;-64
2022/03/07 01:30:05;;;;;;;4.15;3.75;;;1.50;81.60;;;;;;5029465;28;20402;-63
2022/03/07 01:32:31;;;;;;;5.38;4.00;;;1.40;81.80;;;;;;5020972;28;20040;-63
2022/03/07 01:34:58;;;;;;;6.82;4.20;;;1.30;82.20;;;;;;5029496;28;20400;-65
2022/03/07 01:37:23;;;;;;;6.22;4.38;;;1.20;82.60;;;;;;5020573;28;20029;-63
2022/03/07 01:39:49;;;;;;;5.60;4.40;;;1.10;82.90;;;;;;5022297;28;20748;-65
2022/03/07 01:42:15;;;;;;;6.90;4.43;;;1.00;83.20;;;;;;5022285;28;20018;-63
2022/03/07 01:44:41;;;;;;;8.25;4.45;;;0.90;83.70;;;;;;5022211;28;20060;-63
2022/03/07 01:47:07;;;;;;;6.53;3.80;;;0.90;83.90;;;;;;5019653;28;20103;-63
2022/03/07 01:49:32;;;;;;;6.10;4.10;;;0.80;84.30;;;;;;5021950;28;20040;-63
2022/03/07 01:51:59;;;;;;;8.90;4.85;;;0.70;84.80;;;;;;5020183;28;20044;-63
2022/03/07 01:54:26;;;;;;;7.28;4.30;;;0.70;85.40;;;;;;5020422;28;20472;-63
2022/03/07 01:56:54;;;;;;;9.00;4.30;;;0.60;85.70;;;;;;5019562;28;20029;-63
2022/03/07 01:59:26;;;;;;;6.00;4.53;;;0.50;86.10;;;;;;5020462;28;20033;-63
2022/03/07 02:01:52;;;;;;;8.27;4.53;;;0.50;86.60;;;;;;5017429;28;20832;-64
2022/03/07 02:04:19;;;;;;;8.25;4.40;;;0.40;87.00;;;;;;5015609;28;20141;-63
2022/03/07 02:06:46;;;;;;;6.72;4.60;;;0.40;87.20;;;;;;5027886;28;20044;-64
2022/03/07 02:09:12;;;;;;;8.27;4.72;;;0.40;87.40;;;;;;5020105;28;20029;-65
2022/03/07 02:11:43;;;;;;;6.10;4.60;;;0.40;87.60;;;;;;5020524;28;20116;-63
2022/03/07 02:14:24;;;;;;;7.40;4.80;;;0.40;87.70;;;;;;5020921;28;20120;-63
2022/03/07 02:25:16;;;;;;;8.88;5.22;;;0.80;87.40;;;;;;5015124;28;20132;-63
2022/03/07 02:27:42;;;;;;;7.28;4.50;;;0.80;87.20;;;;;;5032561;28;20835;-63
2022/03/07 02:30:09;;;;;;;7.75;4.70;;;0.80;87.10;;;;;;5021020;28;20037;-63
2022/03/07 02:32:40;;;;;;;7.45;5.28;;;0.80;86.90;;;;;;5018819;28;20564;-64
2022/03/07 02:35:10;;;;;;;7.22;4.53;;;0.70;86.80;;;;;;5018668;28;20032;-64
2022/03/07 02:37:36;;;;;;;7.25;4.60;;;0.80;86.50;;;;;;5020405;28;20457;-64
2022/03/07 02:40:03;;;;;;;8.77;5.05;;;0.80;86.60;;;;;;5020827;28;20033;-63
2022/03/07 02:42:30;;;;;;;6.75;4.60;;;0.90;86.20;;;;;;5019647;28;20040;-63
2022/03/07 02:44:56;;;;;;;7.82;4.80;;;0.90;86.20;;;;;;5018189;28;20033;-63
2022/03/07 02:47:23;;;;;;;9.00;5.63;;;0.90;86.20;;;;;;5016401;28;20105;-64
2022/03/07 02:49:50;;;;;;;9.43;5.47;;;1.00;86.00;;;;;;5017121;28;20124;-64
2022/03/07 02:52:16;;;;;;;9.88;5.93;;;1.10;85.90;;;;;;5020295;28;20040;-63
2022/03/07 02:54:41;;;;;;;9.23;4.97;;;1.20;86.00;;;;;;5021645;28;20037;-64
2022/03/07 02:57:07;;;;;;;7.05;4.65;;;1.10;85.30;;;;;;5020752;28;20037;-64
2022/03/07 02:59:33;;;;;;;8.13;5.40;;;1.10;85.50;;;;;;5023193;28;20061;-63
2022/03/07 03:01:59;;;;;;;6.63;4.20;;;1.10;85.70;;;;;;5021435;28;20091;-63
2022/03/07 03:04:25;;;;;;;7.75;5.25;;;1.10;86.10;;;;;;5021356;28;20037;-63
2022/03/07 03:06:51;;;;;;;8.20;5.18;;;1.20;86.00;;;;;;5020825;28;20124;-63
2022/03/07 03:09:16;;;;;;;8.02;4.88;;;1.20;85.50;;;;;;5020982;28;20112;-63
2022/03/07 03:11:42;;;;;;;7.68;4.70;;;1.30;85.20;;;;;;5018349;28;20183;-63
2022/03/07 03:14:08;;;;;;;6.35;4.57;;;1.40;85.20;;;;;;5026745;28;20038;-65
2022/03/07 03:16:34;;;;;;;7.57;4.47;;;1.50;84.90;;;;;;5020610;28;20034;-66
2022/03/07 03:18:59;;;;;;;6.47;4.57;;;1.50;84.60;;;;;;5020877;28;20466;-63
2022/03/07 03:21:25;;;;;;;8.35;5.13;;;1.60;84.20;;;;;;5020632;28;20033;-63
2022/03/07 03:23:51;;;;;;;6.38;5.07;;;1.70;84.10;;;;;;5021211;28;20480;-64
2022/03/07 03:26:17;;;;;;;7.65;4.97;;;1.80;83.80;;;;;;5020329;28;20041;-64
2022/03/07 03:28:42;;;;;;;7.45;4.53;;;1.90;83.70;;;;;;5020079;28;20157;-63
2022/03/07 03:31:11;;;;;;;7.97;4.57;;;2.00;84.10;;;;;;5019175;28;20033;-66
2022/03/07 03:33:38;;;;;;;7.82;4.70;;;2.00;83.90;;;;;;5020804;28;20108;-66
2022/03/07 03:36:04;;;;;;;9.90;4.80;;;2.10;83.40;;;;;;5021616;28;20340;-65
2022/03/07 03:38:29;;;;;;;10.70;5.15;;;2.10;83.30;;;;;;5024669;28;20037;-66
2022/03/07 03:40:55;;;;;;;6.93;4.72;;;2.00;83.00;;;;;;5024196;28;20112;-65
2022/03/07 03:43:22;;;;;;;10.13;5.13;;;1.90;83.20;;;;;;5024387;28;20048;-65
2022/03/07 03:45:48;;;;;;;9.27;4.97;;;1.80;83.50;;;;;;5023828;28;20036;-65
2022/03/07 03:48:13;;;;;;;8.65;4.93;;;1.70;84.30;;;;;;5023969;28;20045;-65
2022/03/07 03:50:39;;;;;;;5.10;4.15;;;1.60;84.90;;;;;;5023865;28;20037;-65
2022/03/07 03:53:05;;;;;;;6.75;4.00;;;1.50;85.10;;;;;;5024083;28;20450;-65
2022/03/07 03:55:31;;;;;;;6.60;3.88;;;1.40;85.30;;;;;;5023907;28;20719;-66
2022/03/07 03:57:56;;;;;;;5.70;3.70;;;1.30;85.70;;;;;;5023422;28;20087;-65
2022/03/07 04:00:23;;;;;;;5.65;4.20;;;1.20;86.00;;;;;;5023707;28;20033;-65
2022/03/07 04:02:49;;;;;;;8.75;4.93;;;1.00;86.20;;;;;;5023979;28;20121;-65
2022/03/07 04:05:15;;;;;;;7.10;5.07;;;0.90;86.40;;;;;;5023231;28;20037;-65
2022/03/07 04:07:43;;;;;;;7.65;4.53;;;0.80;86.60;;;;;;5023995;28;20034;-65
2022/03/07 04:10:09;;;;;;;7.25;4.32;;;0.70;87.00;;;;;;5021011;28;20134;-65
2022/03/07 04:12:36;;;;;;;6.25;4.80;;;0.60;87.40;;;;;;5023646;28;20109;-65
2022/03/07 04:15:03;;;;;;;7.97;5.20;;;0.60;87.60;;;;;;5023372;28;20053;-65
2022/03/07 04:17:28;;;;;;;7.45;4.20;;;0.50;87.80;;;;;;5023418;28;20555;-65
2022/03/07 04:19:54;;;;;;;9.13;4.13;;;0.40;88.20;;;;;;5023395;28;20065;-65
2022/03/07 04:22:20;;;;;;;5.38;4.28;;;0.30;88.50;;;;;;5024229;28;20025;-65
2022/03/07 04:24:45;;;;;;;6.45;4.53;;;0.30;88.80;;;;;;5023649;28;20405;-65
2022/03/07 04:27:11;;;;;;;8.43;4.40;;;0.20;89.20;;;;;;5023046;28;20041;-65
2022/03/07 04:29:37;;;;;;;6.72;4.65;;;0.20;89.40;;;;;;5019522;28;20041;-63
2022/03/07 04:32:03;;;;;;;7.32;4.65;;;0.20;89.60;;;;;;5023631;28;20052;-63
2022/03/07 04:34:29;;;;;;;7.75;4.80;;;0.10;89.80;;;;;;5023751;28;20071;-63
2022/03/07 04:36:55;;;;;;;8.43;4.20;;;0.10;89.90;;;;;;5023338;28;20063;-62
2022/03/07 04:39:20;;;;;;;8.57;4.68;;;0.10;90.00;;;;;;5023589;28;20061;-63
2022/03/07 04:41:46;;;;;;;6.68;4.00;;;0.10;90.20;;;;;;5022803;28;20079;-63
2022/03/07 04:44:12;;;;;;;7.78;4.57;;;0.20;90.20;;;;;;5022973;28;20033;-63
2022/03/07 04:46:38;;;;;;;7.07;3.80;;;0.40;90.00;;;;;;5020639;28;20037;-63
2022/03/07 04:49:04;;;;;;;6.47;4.38;;;0.50;89.80;;;;;;5022588;28;20040;-65
2022/03/07 04:51:30;;;;;;;7.63;4.68;;;0.60;89.60;;;;;;5023565;28;20434;-66
2022/03/07 04:53:56;;;;;;;7.90;4.30;;;0.80;90.00;;;;;;5022789;28;20117;-66
2022/03/07 04:56:22;;;;;;;5.88;4.25;;;1.00;88.90;;;;;;5022675;28;20055;-65
2022/03/07 04:58:48;;;;;;;10.20;4.95;;;1.10;88.40;;;;;;5022759;28;20044;-63
2022/03/07 05:01:15;;;;;;;6.22;4.47;;;1.20;88.00;;;;;;5023177;28;20040;-65
2022/03/07 05:03:41;;;;;;;5.03;4.10;;;1.10;87.60;;;;;;5021588;28;20033;-65
2022/03/07 05:06:08;;;;;;;6.03;4.18;;;1.10;87.60;;;;;;5022662;28;20045;-65
2022/03/07 05:08:35;;;;;;;4.60;3.80;;;1.00;87.60;;;;;;5022929;28;20065;-63
2022/03/07 05:11:01;;;;;;;6.63;4.53;;;0.90;87.90;;;;;;5023123;28;20037;-66
2022/03/07 05:13:26;;;;;;;8.32;4.57;;;0.80;88.20;;;;;;5022911;28;20047;-66
2022/03/07 05:15:52;;;;;;;5.93;4.10;;;0.70;88.30;;;;;;5022571;28;20041;-66
2022/03/07 05:18:18;;;;;;;5.63;3.80;;;0.60;88.40;;;;;;5022766;28;20029;-66
2022/03/07 05:20:44;;;;;;;8.48;4.53;;;0.60;88.60;;;;;;5022686;28;20819;-65
2022/03/07 05:23:09;;;;;;;7.22;4.28;;;0.50;88.70;;;;;;5018972;28;20405;-63
2022/03/07 05:25:35;;;;;;;8.43;4.55;;;0.50;89.00;;;;;;5021376;28;20045;-64
2022/03/07 05:28:01;;;;;;;6.60;4.13;;;0.40;89.10;;;;;;5022509;28;20190;-66
2022/03/07 05:30:27;;;;;;;6.47;4.30;;;0.40;89.30;;;;;;5022630;28;20110;-65
2022/03/07 05:32:53;;;;;;;6.03;4.03;;;0.30;89.50;;;;;;5022545;28;20529;-66
2022/03/07 05:35:21;;;;;;;6.57;4.50;;;0.30;89.60;;;;;;5022313;28;20041;-65
2022/03/07 05:37:48;;;;;;;7.47;4.68;;;0.20;89.60;;;;;;5022100;28;20139;-63
2022/03/07 05:40:15;;;;;;;8.25;4.63;;;0.20;89.80;;;;;;5022594;28;20435;-65
2022/03/07 05:42:41;;;;;;;7.50;4.45;;;0.10;90.20;;;;;;5022396;28;20028;-65
2022/03/07 05:45:09;;;;;;;9.02;4.75;;;0.10;90.10;;;;;;5022234;28;20084;-63
2022/03/07 05:47:35;;;;;;;7.80;4.68;;;0.10;90.20;;;;;;5021874;28;20041;-62
2022/03/07 05:50:02;;;;;;;9.13;5.03;;;0.00;90.30;;;;;;5022226;28;20175;-63
2022/03/07 05:52:28;;;;;;;6.28;4.38;;;0.00;90.50;;;;;;5023359;28;20086;-65
2022/03/07 05:54:54;;;;;;;7.97;4.72;;;0.00;90.50;;;;;;5021929;28;20060;-65
2022/03/07 05:57:20;;;;;;;6.15;3.90;;;0.00;90.40;;;;;;5021699;28;20107;-66
2022/03/07 05:59:46;;;;;;;7.53;4.97;;;0.00;90.50;;;;;;5021195;28;20033;-66
2022/03/07 06:02:12;;;;;;;8.18;5.25;;;0.00;90.60;;;;;;5021481;28;20477;-65
2022/03/07 06:04:38;;;;;;;8.05;5.07;;;0.00;90.50;;;;;;5022346;28;20068;-63
2022/03/07 06:07:04;;;;;;;7.65;4.72;;;0.10;90.60;;;;;;5021530;28;20779;-65
2022/03/07 06:09:30;;;;;;;7.55;5.00;;;0.10;90.60;;;;;;5021592;28;20052;-65
2022/03/07 06:11:56;;;;;;;7.15;5.00;;;0.10;90.60;;;;;;5022083;28;20033;-63
2022/03/07 06:14:21;;;;;;;11.65;5.07;;;0.20;90.70;;;;;;5021841;28;20156;-63
2022/03/07 06:16:47;;;;;;;6.93;4.78;;;0.20;90.50;;;;;;5020776;28;20099;-63
2022/03/07 06:19:13;;;;;;;8.18;4.90;;;0.30;90.50;;;;;;5020508;28;20033;-63
2022/03/07 06:21:39;;;;;;;7.40;4.72;;;0.40;90.50;;;;;;5020600;28;20595;-63
2022/03/07 06:24:05;;;;;;;10.10;5.03;;;0.40;90.50;;;;;;5020093;28;20071;-63
2022/03/07 06:26:30;;;;;;;8.63;5.85;;;0.40;90.60;;;;;;5020242;28;20600;-65
2022/03/07 06:28:56;;;;;;;8.38;5.40;;;0.50;90.60;;;;;;5024353;28;20033;-62
2022/03/07 06:31:22;;;;;;;8.93;5.40;;;0.60;90.60;;;;;;5020548;28;20113;-65
2022/03/07 06:33:48;;;;;;;9.65;5.07;;;0.60;90.60;;;;;;5020036;28;20037;-65
2022/03/07 06:36:13;;;;;;;8.40;4.97;;;0.70;90.50;;;;;;5019390;28;20025;-65
2022/03/07 06:38:39;;;;;;;8.82;5.05;;;0.80;90.50;;;;;;5019671;28;20087;-65
2022/03/07 06:41:06;;;;;;;7.95;5.10;;;0.90;90.40;;;;;;5019487;28;20033;-65
2022/03/07 06:43:33;;;;;;;8.00;5.10;;;0.90;90.20;;;;;;5020289;28;20498;-65
2022/03/07 06:45:59;;;;;;;11.23;6.15;;;1.00;90.10;;;;;;5020037;28;20037;-66
2022/03/07 06:48:25;;;;;;;10.90;4.97;;;1.00;89.90;;;;;;5020042;28;20099;-65
2022/03/07 06:50:51;;;;;;;10.43;4.88;;;1.10;89.80;;;;;;5020272;28;20138;-65
2022/03/07 06:53:17;;;;;;;11.30;5.53;;;1.20;89.50;;;;;;5020255;28;20144;-66
2022/03/07 06:55:43;;;;;;;7.90;5.65;;;1.30;89.20;;;;;;5019762;28;20759;-65
2022/03/07 06:58:09;;;;;;;8.00;5.07;;;1.40;88.90;;;;;;5020243;28;20573;-64
2022/03/07 07:00:35;;;;;;;9.30;5.10;;;1.50;88.30;;;;;;5020067;28;20036;-63
2022/03/07 07:03:02;;;;;;;10.38;5.00;;;1.70;88.10;;;;;;5021430;28;20500;-64
2022/03/07 07:05:28;;;;;;;7.78;5.25;;;1.80;87.60;;;;;;5020169;28;20401;-64
2022/03/07 07:07:54;;;;;;;14.68;5.78;;;2.00;87.10;;;;;;5019642;28;20727;-64
2022/03/07 07:10:20;;;;;;;7.30;5.15;;;2.20;86.50;;;;;;5020523;28;20128;-64
2022/03/07 07:12:47;;;;;;;9.73;5.60;;;2.30;85.80;;;;;;5023657;28;20033;-64
2022/03/07 07:15:13;;;;;;;7.68;5.10;;;2.50;85.30;;;;;;5023259;28;20038;-64
2022/03/07 07:17:40;;;;;;;9.25;5.03;;;2.60;84.80;;;;;;5023448;28;20037;-64
2022/03/07 07:20:07;;;;;;;10.45;5.65;;;2.70;84.20;;;;;;5023461;28;20099;-64
2022/03/07 07:22:33;;;;;;;6.47;4.70;;;2.90;83.70;;;;;;5023687;28;20107;-64
2022/03/07 07:24:59;;;;;;;7.43;4.75;;;2.90;83.10;;;;;;5023064;28;20041;-64
2022/03/07 07:27:25;;;;;;;8.45;4.88;;;3.10;82.80;;;;;;5024201;28;20041;-64
2022/03/07 07:29:51;;;;;;;10.88;5.38;;;3.20;82.20;;;;;;5023923;28;20051;-64
2022/03/07 07:32:16;;;;;;;6.70;5.07;;;3.30;81.80;;;;;;5024215;28;20037;-64
2022/03/07 07:34:42;;;;;;;7.90;5.43;;;3.50;81.50;;;;;;5024660;28;20124;-64
2022/03/07 07:37:08;;;;;;;8.18;5.30;;;3.60;81.00;;;;;;5024136;28;20029;-64
2022/03/07 07:39:34;;;;;;;12.27;6.70;;;3.80;80.40;;;;;;5024320;28;20491;-64
2022/03/07 07:42:00;;;;;;;9.75;5.97;;;4.20;79.60;;;;;;5024632;28;20049;-64
2022/03/07 07:44:26;;;;;;;7.47;5.10;;;5.70;76.40;;;;;;5023481;28;20405;-65
2022/03/07 07:46:53;;;;;;;7.82;5.35;;;9.40;64.20;;;;;;5023353;28;20082;-65
2022/03/07 07:49:19;;;;;;;12.77;6.38;;;13.10;51.30;;;;;;5024557;28;20049;-65
2022/03/07 07:51:45;;;;;;;11.52;5.60;;;16.30;43.50;;;;;;5024224;28;20037;-65
2022/03/07 07:54:10;;;;;;;10.50;5.45;;;18.90;38.10;;;;;;5023901;28;20056;-64
2022/03/07 07:56:36;;;;;;;10.95;6.13;;;19.90;35.10;;;;;;5024105;28;20040;-65
2022/03/07 07:59:02;;;;;;;11.43;5.95;;;20.80;33.20;;;;;;5024119;28;20034;-65
2022/03/07 08:01:29;;;;;;;7.60;5.40;;;21.60;31.80;;;;;;5024053;28;20029;-65
2022/03/07 08:03:55;;;;;;;9.18;5.75;;;21.80;31.30;;;;;;5024111;28;20030;-65
2022/03/07 08:06:21;;;;;;;9.45;6.00;;;22.20;30.60;;;;;;5023598;28;20033;-65
2022/03/07 08:08:46;;;;;;;10.30;5.97;;;21.60;30.20;;;;;;5023548;28;20036;-65
2022/03/07 08:11:12;;;;;;;10.88;6.43;;;20.70;31.50;;;;;;5025406;28;20029;-65
2022/03/07 08:13:38;;;;;;;13.98;7.22;;;19.30;34.10;;;;;;5023556;28;20029;-65
2022/03/07 08:16:04;;;;;;;10.20;6.22;;;17.60;36.20;;;;;;5021598;28;20763;-64
2022/03/07 08:18:30;;;;;;;8.55;6.07;;;17.20;37.40;;;;;;5023520;28;20043;-65
2022/03/07 08:20:59;;;;;;;11.73;6.43;;;16.60;38.20;;;;;;5023492;28;20029;-65
2022/03/07 08:23:28;;;;;;;10.07;6.63;;;15.60;40.40;;;;;;5021952;28;20619;-65
2022/03/07 08:25:54;;;;;;;9.05;6.82;;;14.40;42.70;;;;;;5023479;28;20803;-64
2022/03/07 08:28:19;;;;;;;10.50;7.15;;;13.90;44.30;;;;;;5023675;28;20042;-65
2022/03/07 08:30:45;;;;;;;13.38;7.20;;;14.50;43.70;;;;;;5022828;28;20029;-64
2022/03/07 08:33:11;;;;;;;11.15;7.10;;;14.80;42.10;;;;;;5023642;28;20450;-65
2022/03/07 08:35:37;;;;;;;11.70;6.50;;;15.90;40.80;;;;;;5023250;28;20044;-65
2022/03/07 08:38:03;;;;;;;12.88;7.07;;;15.60;40.40;;;;;;5022846;28;20026;-65
2022/03/07 08:40:29;;;;;;;10.13;6.30;;;14.90;42.10;;;;;;5023473;28;20478;-65
2022/03/07 08:42:55;;;;;;;10.90;6.95;;;14.20;43.90;;;;;;5023295;28;20111;-65
2022/03/07 08:45:22;;;;;;;12.60;6.45;;;14.10;44.60;;;;;;5020371;28;20044;-64
2022/03/07 08:47:48;;;;;;;11.68;6.35;;;15.30;43.10;;;;;;5023098;28;20029;-65
2022/03/07 08:50:16;;;;;;;9.95;6.07;;;16.00;41.20;;;;;;5022850;28;20034;-65
2022/03/07 08:52:42;;;;;;;10.18;6.43;;;15.90;41.10;;;;;;5022706;28;20128;-65
2022/03/07 08:55:08;;;;;;;20.20;9.50;;;15.10;42.20;;;;;;5022282;28;20179;-64
2022/03/07 08:57:34;;;;;;;14.73;7.55;;;15.20;42.90;;;;;;5022534;28;20030;-64
2022/03/07 09:00:00;;;;;;;14.60;6.22;;;16.80;40.00;;;;;;5022580;28;20057;-64
2022/03/07 09:02:26;;;;;;;11.13;6.20;;;18.10;37.60;;;;;;5022555;28;20482;-77
2022/03/07 09:04:51;;;;;;;14.15;6.72;;;17.30;38.40;;;;;;5023945;28;20037;-64
2022/03/07 09:07:17;;;;;;;11.23;6.30;;;15.60;41.10;;;;;;5022425;28;20064;-64
2022/03/07 09:09:43;;;;;;;11.93;5.63;;;14.50;43.70;;;;;;5019705;28;20668;-64
2022/03/07 09:12:09;;;;;;;12.82;6.18;;;15.50;42.90;;;;;;5028905;28;20132;-65
2022/03/07 09:14:35;;;;;;;10.02;5.28;;;17.50;39.70;;;;;;5022249;28;20099;-64
2022/03/07 09:17:00;;;;;;;9.15;6.00;;;21.60;33.40;;;;;;5022506;28;20044;-63
2022/03/07 09:19:26;;;;;;;9.02;6.10;;;23.90;29.90;;;;;;5022936;28;20039;-64
2022/03/07 09:21:52;;;;;;;10.38;5.63;;;25.20;28.40;;;;;;5022959;28;20088;-64
2022/03/07 09:24:19;;;;;;;8.88;5.03;;;27.40;27.10;;;;;;5022466;28;20029;-64
2022/03/07 09:26:45;;;;;;;6.70;5.43;;;28.50;26.30;;;;;;5021274;28;20033;-65
2022/03/07 09:29:11;;;;;;;11.93;5.50;;;28.90;25.60;;;;;;5022167;28;20678;-65
2022/03/07 09:31:37;;;;;;;7.47;5.50;;;29.70;25.10;;;;;;5022229;28;20102;-65
2022/03/07 09:34:03;;;;;;;8.35;4.88;;;29.50;25.00;;;;;;5021935;28;20061;-64
2022/03/07 09:36:28;;;;;;;10.80;5.53;;;29.20;25.10;;;;;;5023647;28;20157;-65
2022/03/07 09:38:55;;;;;;;7.50;5.18;;;26.50;26.40;;;;;;5021244;28;20153;-65
2022/03/07 09:41:21;;;;;;;10.05;5.88;;;22.80;29.80;;;;;;5021779;28;20059;-64
2022/03/07 09:43:48;;;;;;;8.35;5.25;;;19.80;34.10;;;;;;5021488;28;20039;-65
2022/03/07 09:46:14;;;;;;;8.68;5.80;;;17.60;38.20;;;;;;5020648;28;20037;-64
2022/03/07 09:48:42;;;;;;;8.57;5.80;;;16.00;41.10;;;;;;5021961;28;20112;-63
2022/03/07 09:51:08;;;;;;;10.50;5.55;;;15.90;42.20;;;;;;5021369;28;20575;-64
2022/03/07 09:53:34;;;;;;;9.10;5.22;;;17.90;37.60;;;;;;5021240;28;20029;-64
2022/03/07 09:55:59;;;;;;;8.05;4.57;;;20.20;34.50;;;;;;5019108;28;20071;-64
2022/03/07 09:58:25;;;;;;;9.40;5.25;;;21.10;33.20;;;;;;5020050;28;20121;-65
2022/03/07 10:00:51;;;;;;;10.40;6.93;;;24.20;29.20;;;;;;5019891;28;20030;-63
2022/03/07 10:03:20;;;;;;;9.27;5.15;;;27.50;26.40;;;;;;5019347;28;20022;-64
2022/03/07 10:05:47;;;;;;;7.25;4.90;;;28.60;25.00;;;;;;5020649;28;20523;-64
2022/03/07 10:08:25;;;;;;;7.13;4.65;;;30.50;24.50;;;;;;5021121;28;20029;-64
2022/03/07 10:10:52;;;;;;;8.70;4.93;;;32.00;23.10;;;;;;5021073;28;20508;-65
2022/03/07 10:13:19;;;;;;;4.90;4.03;;;32.00;23.10;;;;;;5017223;28;20041;-65
2022/03/07 10:15:58;;;;;;;7.53;4.53;;;32.00;23.00;;;;;;5023588;28;20820;-65
2022/03/07 10:18:24;;;;;;;9.93;6.00;;;31.80;23.00;;;;;;5019133;28;20065;-63
2022/03/07 10:20:53;;;;;;;12.45;6.60;;;30.40;23.90;;;;;;5016447;28;20125;-63
2022/03/07 10:23:20;;;;;;;7.65;4.53;;;30.70;24.50;;;;;;5019925;28;20557;-63
2022/03/07 10:25:46;;;;;;;6.43;4.47;;;30.90;23.80;;;;;;5018621;28;20037;-64
2022/03/07 10:28:12;;;;;;;7.53;4.45;;;30.50;23.90;;;;;;5020895;28;20048;-64
2022/03/07 10:30:39;;;;;;;6.80;5.32;;;30.50;24.20;;;;;;5020450;28;20106;-64
2022/03/07 10:33:13;;;;;;;9.95;5.10;;;30.80;23.70;;;;;;5020819;28;20477;-64
2022/03/07 10:35:40;;;;;;;9.25;4.85;;;31.10;23.40;;;;;;5020006;28;20696;-64
2022/03/07 10:38:13;;;;;;;5.88;5.00;;;32.00;23.00;;;;;;5020913;28;20032;-64
2022/03/07 10:40:52;;;;;;;7.85;4.68;;;33.90;22.10;;;;;;5017875;28;20033;-63
2022/03/07 10:43:19;;;;;;;7.25;4.25;;;36.00;21.40;;;;;;5020477;28;20829;-66
2022/03/07 10:45:49;;;;;;;5.68;3.97;;;36.80;20.60;;;;;;5019427;28;20449;-64
2022/03/07 10:48:17;;;;;;;7.55;4.45;;;37.60;20.40;;;;;;5018058;28;20038;-64
2022/03/07 10:50:48;;;;;;;6.13;3.92;;;38.20;19.90;;;;;;5020846;28;20505;-65
2022/03/07 10:53:14;;;;;;;5.28;4.18;;;38.30;19.30;;;;;;5020267;28;20136;-64
2022/03/07 10:55:40;;;;;;;7.55;5.50;;;38.50;19.50;;;;;;5020169;28;20502;-64
2022/03/07 10:58:11;;;;;;;7.35;4.78;;;38.40;19.60;;;;;;5020612;28;20524;-70
2022/03/07 11:00:54;;;;;;;8.48;5.57;;;38.30;19.80;;;;;;5016850;28;20029;-71
2022/03/07 11:03:23;;;;;;;5.25;4.28;;;38.70;19.60;;;;;;5018865;28;20029;-70
2022/03/07 11:05:49;;;;;;;6.50;4.30;;;38.80;19.30;;;;;;5019580;28;20036;-70
2022/03/07 11:08:16;;;;;;;7.95;5.75;;;38.20;19.40;;;;;;5020147;28;20044;-70
2022/03/07 11:10:48;;;;;;;5.97;5.07;;;38.30;19.30;;;;;;5020852;28;20556;-71
2022/03/07 11:13:16;;;;;;;8.77;5.82;;;38.20;19.40;;;;;;5017849;28;20038;-74
2022/03/07 11:15:43;;;;;;;6.93;5.85;;;36.80;19.60;;;;;;5019756;28;20497;-71
2022/03/07 11:18:14;;;;;;;7.65;5.75;;;36.10;20.00;;;;;;5020327;28;20520;-70
2022/03/07 11:20:42;;;;;;;10.02;7.20;;;34.90;20.30;;;;;;5019914;28;20098;-70
2022/03/07 11:23:09;;;;;;;7.75;6.05;;;33.80;21.00;;;;;;5019415;28;20463;-70
2022/03/07 11:25:37;;;;;;;9.27;5.82;;;30.00;22.90;;;;;;5018868;28;20060;-70
2022/03/07 11:28:04;;;;;;;9.85;6.75;;;25.40;25.80;;;;;;5019147;28;20412;-70
2022/03/07 11:30:35;;;;;;;9.35;6.63;;;21.80;29.30;;;;;;5019165;28;20118;-70
2022/03/07 11:33:10;;;;;;;10.20;6.85;;;19.00;32.40;;;;;;5019829;28;20026;-70
2022/03/07 11:35:36;;;;;;;10.20;6.47;;;16.70;36.70;;;;;;5015950;28;20122;-69
2022/03/07 11:38:16;;;;;;;9.55;6.78;;;15.10;38.60;;;;;;5019774;28;20038;-69
2022/03/07 11:41:09;;;;;;;10.65;6.07;;;13.90;41.20;;;;;;5019388;28;20034;-69
2022/03/07 11:43:48;;;;;;;13.55;6.53;;;13.20;43.40;;;;;;5019419;28;20142;-69
2022/03/07 11:46:32;;;;;;;9.68;5.70;;;12.60;44.50;;;;;;5017196;28;20040;-70
2022/03/07 11:48:58;;;;;;;9.80;6.15;;;12.30;45.30;;;;;;5031790;28;20040;-69
2022/03/07 11:51:26;;;;;;;10.73;6.60;;;12.10;45.00;;;;;;5019513;28;20044;-69
2022/03/07 11:53:53;;;;;;;13.05;6.28;;;11.90;46.50;;;;;;5020035;28;20508;-69
2022/03/07 11:56:30;;;;;;;11.35;6.32;;;11.70;46.00;;;;;;5020250;28;20033;-69
2022/03/07 11:58:59;;;;;;;10.18;6.85;;;11.50;48.00;;;;;;5025093;28;20040;-69
2022/03/07 12:01:26;;;;;;;11.65;6.65;;;11.40;49.10;;;;;;5022542;28;20823;-70
2022/03/07 12:03:53;;;;;;;13.05;6.65;;;11.40;49.80;;;;;;5023330;28;20241;-70
2022/03/07 12:06:22;;;;;;;10.32;6.93;;;11.50;47.90;;;;;;5022740;28;20112;-69
2022/03/07 12:08:53;;;;;;;12.35;6.65;;;11.50;48.60;;;;;;5023321;28;20474;-70
2022/03/07 12:11:34;;;;;;;13.43;7.00;;;11.40;47.80;;;;;;5027422;28;20040;-69
2022/03/07 12:14:08;;;;;;;9.45;5.97;;;11.30;49.10;;;;;;5021670;28;20042;-70
2022/03/07 12:16:40;;;;;;;11.52;7.20;;;11.30;48.40;;;;;;5022317;28;20030;-69
2022/03/07 12:19:07;;;;;;;11.82;6.43;;;11.40;49.80;;;;;;5022983;28;20040;-69
2022/03/07 12:21:34;;;;;;;11.38;6.18;;;11.40;49.60;;;;;;5021637;28;20022;-73
2022/03/07 12:24:00;;;;;;;11.52;6.95;;;11.50;49.60;;;;;;5023062;28;20064;-74
2022/03/07 12:26:25;;;;;;;10.30;5.88;;;11.50;48.40;;;;;;5020390;28;20033;-73
2022/03/07 12:28:51;;;;;;;9.68;6.00;;;11.50;48.80;;;;;;5018888;28;20892;-69
2022/03/07 12:31:17;;;;;;;8.50;5.43;;;11.50;47.30;;;;;;5018920;28;20037;-71
2022/03/07 12:33:48;;;;;;;8.27;5.10;;;11.50;47.50;;;;;;5022227;28;20036;-74
2022/03/07 12:36:15;;;;;;;9.27;5.13;;;11.40;47.50;;;;;;5016688;28;20030;-71
2022/03/07 12:38:48;;;;;;;8.00;5.18;;;11.30;45.90;;;;;;5021314;28;20033;-71
2022/03/07 12:41:15;;;;;;;6.18;3.60;;;11.30;46.20;;;;;;5020202;28;20045;-71
2022/03/07 12:43:43;;;;;;;7.80;3.92;;;11.30;44.20;;;;;;5021791;28;20532;-74
2022/03/07 12:46:12;;;;;;;8.13;4.60;;;11.20;44.10;;;;;;5021292;28;20373;-73
2022/03/07 12:48:43;;;;;;;7.25;4.05;;;11.20;44.20;;;;;;5017932;28;20065;-71
2022/03/07 12:51:16;;;;;;;7.18;4.30;;;11.20;45.10;;;;;;5022096;28;20276;-72
2022/03/07 12:53:53;;;;;;;7.80;4.63;;;11.10;46.60;;;;;;5021104;28;20048;-67
2022/03/07 12:56:21;;;;;;;8.18;4.47;;;11.10;45.70;;;;;;5017369;28;20029;-68
2022/03/07 12:58:56;;;;;;;9.18;5.28;;;11.10;46.20;;;;;;5022315;28;20562;-68